sensor_id;sensor_type;location;lat;lon;timestamp;pressure;altitude;pressure_sealevel;temperature;humidity
4449;BME280;2237;51.870;6.160;2023-03-14T00:00:16;98806.78;;;13.18;100.00
4449;BME280;2237;51.870;6.160;2023-03-14T00:02:42;98811.81;;;13.21;100.00
4449;BME280;2237;51.870;6.160;2023-03-14T00:05:09;98796.25;;;13.19;100.00
4449;BME280;2237;51.870;6.160;2023-03-14T00:07:37;98797.94;;;13.20;100.00
4449;BME280;2237;51.870;6.160;2023-03-14T00:10:08;98800.69;;;13.31;100.00
4449;BME280;2237;51.870;6.160;2023-03-14T00:12:34;98789.47;;;13.29;100.00
4449;BME280;2237;51.870;6.160;2023-03-14T00:15:01;98794.59;;;13.31;100.00
4449;BME280;2237;51.870;6.160;2023-03-14T00:17:30;98783.53;;;13.40;100.00
4449;BME280;2237;51.870;6.160;2023-03-14T00:19:56;98786.16;;;13.52;100.00
4449;BME280;2237;51.870;6.160;2023-03-14T00:22:23;98781.38;;;13.59;100.00
4449;BME280;2237;51.870;6.160;2023-03-14T00:24:50;98779.72;;;13.58;100.00
4449;BME280;2237;51.870;6.160;2023-03-14T00:27:16;98790.66;;;13.50;100.00
4449;BME280;2237;51.870;6.160;2023-03-14T00:29:43;98794.56;;;13.18;100.00
4449;BME280;2237;51.870;6.160;2023-03-14T00:32:10;98783.94;;;13.07;100.00
4449;BME280;2237;51.870;6.160;2023-03-14T00:34:36;98779.28;;;13.12;100.00
4449;BME280;2237;51.870;6.160;2023-03-14T00:37:02;98779.03;;;13.02;100.00
4449;BME280;2237;51.870;6.160;2023-03-14T00:39:28;98781.69;;;12.88;100.00
4449;BME280;2237;51.870;6.160;2023-03-14T00:41:55;98779.09;;;12.74;100.00
4449;BME280;2237;51.870;6.160;2023-03-14T00:44:21;98785.28;;;12.73;100.00
4449;BME280;2237;51.870;6.160;2023-03-14T00:46:48;98781.16;;;12.69;100.00
4449;BME280;2237;51.870;6.160;2023-03-14T00:49:14;98788.84;;;12.58;100.00
4449;BME280;2237;51.870;6.160;2023-03-14T00:51:41;98794.25;;;12.55;100.00
4449;BME280;2237;51.870;6.160;2023-03-14T00:54:07;98785.88;;;12.50;100.00
4449;BME280;2237;51.870;6.160;2023-03-14T00:56:33;98798.81;;;12.52;100.00
4449;BME280;2237;51.870;6.160;2023-03-14T00:59:00;98800.59;;;12.51;100.00
4449;BME280;2237;51.870;6.160;2023-03-14T01:01:26;98794.06;;;12.58;100.00
4449;BME280;2237;51.870;6.160;2023-03-14T01:03:54;98805.00;;;12.51;100.00
4449;BME280;2237;51.870;6.160;2023-03-14T01:06:26;98808.63;;;12.48;100.00
4449;BME280;2237;51.870;6.160;2023-03-14T01:08:54;98805.25;;;12.46;100.00
4449;BME280;2237;51.870;6.160;2023-03-14T01:11:22;98806.75;;;12.50;100.00
4449;BME280;2237;51.870;6.160;2023-03-14T01:13:49;98805.38;;;12.44;100.00
4449;BME280;2237;51.870;6.160;2023-03-14T01:16:16;98807.50;;;12.52;100.00
4449;BME280;2237;51.870;6.160;2023-03-14T01:18:44;98798.66;;;12.40;100.00
4449;BME280;2237;51.870;6.160;2023-03-14T01:21:24;98801.19;;;12.42;100.00
4449;BME280;2237;51.870;6.160;2023-03-14T01:23:52;98798.56;;;12.42;100.00
4449;BME280;2237;51.870;6.160;2023-03-14T01:26:21;98802.19;;;12.39;100.00
4449;BME280;2237;51.870;6.160;2023-03-14T01:28:50;98803.38;;;12.48;100.00
4449;BME280;2237;51.870;6.160;2023-03-14T01:31:17;98792.59;;;12.40;100.00
4449;BME280;2237;51.870;6.160;2023-03-14T01:33:45;98801.28;;;12.40;100.00
4449;BME280;2237;51.870;6.160;2023-03-14T01:36:12;98799.94;;;12.33;100.00
4449;BME280;2237;51.870;6.160;2023-03-14T01:38:39;98790.72;;;12.28;100.00
4449;BME280;2237;51.870;6.160;2023-03-14T01:41:07;98798.38;;;12.31;100.00
4449;BME280;2237;51.870;6.160;2023-03-14T01:43:34;98801.84;;;12.31;100.00
4449;BME280;2237;51.870;6.160;2023-03-14T01:48:35;98781.69;;;12.19;100.00
4449;BME280;2237;51.870;6.160;2023-03-14T01:51:02;98771.91;;;12.23;100.00
4449;BME280;2237;51.870;6.160;2023-03-14T01:53:31;98764.84;;;12.11;100.00
4449;BME280;2237;51.870;6.160;2023-03-14T01:55:57;98759.72;;;12.09;100.00
4449;BME280;2237;51.870;6.160;2023-03-14T01:58:26;98751.63;;;12.00;100.00
4449;BME280;2237;51.870;6.160;2023-03-14T02:00:56;98769.03;;;11.99;100.00
4449;BME280;2237;51.870;6.160;2023-03-14T02:03:23;98760.59;;;11.96;100.00
4449;BME280;2237;51.870;6.160;2023-03-14T02:05:51;98759.81;;;11.94;100.00
4449;BME280;2237;51.870;6.160;2023-03-14T02:08:20;98754.03;;;12.03;100.00
4449;BME280;2237;51.870;6.160;2023-03-14T02:10:48;98747.97;;;12.02;100.00
4449;BME280;2237;51.870;6.160;2023-03-14T02:13:17;98741.72;;;12.05;100.00
4449;BME280;2237;51.870;6.160;2023-03-14T02:15:45;98749.94;;;12.13;100.00
4449;BME280;2237;51.870;6.160;2023-03-14T02:18:12;98757.00;;;12.11;100.00
4449;BME280;2237;51.870;6.160;2023-03-14T02:21:02;98757.97;;;12.10;100.00
4449;BME280;2237;51.870;6.160;2023-03-14T02:23:44;98768.66;;;12.05;100.00
4449;BME280;2237;51.870;6.160;2023-03-14T02:26:20;98761.13;;;12.01;100.00
4449;BME280;2237;51.870;6.160;2023-03-14T02:28:49;98762.59;;;11.90;100.00
4449;BME280;2237;51.870;6.160;2023-03-14T02:31:16;98764.28;;;11.92;100.00
4449;BME280;2237;51.870;6.160;2023-03-14T02:33:42;98769.78;;;11.87;100.00
4449;BME280;2237;51.870;6.160;2023-03-14T02:36:11;98771.81;;;11.82;100.00
4449;BME280;2237;51.870;6.160;2023-03-14T02:41:28;98766.34;;;11.86;100.00
4449;BME280;2237;51.870;6.160;2023-03-14T02:43:55;98766.06;;;11.91;100.00
4449;BME280;2237;51.870;6.160;2023-03-14T02:46:22;98768.78;;;11.89;100.00
4449;BME280;2237;51.870;6.160;2023-03-14T02:48:53;98763.63;;;11.88;100.00
4449;BME280;2237;51.870;6.160;2023-03-14T02:51:22;98760.53;;;11.81;100.00
4449;BME280;2237;51.870;6.160;2023-03-14T02:53:50;98765.13;;;11.78;100.00
4449;BME280;2237;51.870;6.160;2023-03-14T02:56:16;98755.63;;;11.91;100.00
4449;BME280;2237;51.870;6.160;2023-03-14T02:58:43;98758.22;;;11.77;100.00
4449;BME280;2237;51.870;6.160;2023-03-14T03:01:09;98752.34;;;11.87;100.00
4449;BME280;2237;51.870;6.160;2023-03-14T03:03:36;98753.94;;;11.90;100.00
4449;BME280;2237;51.870;6.160;2023-03-14T03:06:02;98756.19;;;11.82;100.00
4449;BME280;2237;51.870;6.160;2023-03-14T03:08:29;98759.72;;;11.81;100.00
4449;BME280;2237;51.870;6.160;2023-03-14T03:10:56;98754.03;;;11.74;100.00
4449;BME280;2237;51.870;6.160;2023-03-14T03:13:23;98757.06;;;11.67;100.00
4449;BME280;2237;51.870;6.160;2023-03-14T03:15:50;98754.72;;;11.62;100.00
4449;BME280;2237;51.870;6.160;2023-03-14T03:18:16;98753.81;;;11.63;100.00
4449;BME280;2237;51.870;6.160;2023-03-14T03:20:43;98753.22;;;11.58;100.00
4449;BME280;2237;51.870;6.160;2023-03-14T03:23:09;98757.22;;;11.64;100.00
4449;BME280;2237;51.870;6.160;2023-03-14T03:25:36;98771.13;;;11.64;100.00
4449;BME280;2237;51.870;6.160;2023-03-14T03:28:02;98762.03;;;11.71;100.00
4449;BME280;2237;51.870;6.160;2023-03-14T03:30:38;98760.09;;;11.75;100.00
4449;BME280;2237;51.870;6.160;2023-03-14T03:33:04;98750.31;;;11.78;100.00
4449;BME280;2237;51.870;6.160;2023-03-14T03:35:31;98756.34;;;11.93;100.00
4449;BME280;2237;51.870;6.160;2023-03-14T03:37:58;98746.28;;;11.87;100.00
4449;BME280;2237;51.870;6.160;2023-03-14T03:40:24;98749.13;;;11.84;100.00
4449;BME280;2237;51.870;6.160;2023-03-14T03:42:51;98747.13;;;11.73;100.00
4449;BME280;2237;51.870;6.160;2023-03-14T03:45:17;98743.94;;;11.68;100.00
4449;BME280;2237;51.870;6.160;2023-03-14T03:47:43;98747.31;;;11.70;100.00
4449;BME280;2237;51.870;6.160;2023-03-14T03:50:10;98748.00;;;11.58;100.00
4449;BME280;2237;51.870;6.160;2023-03-14T03:52:36;98748.97;;;11.57;100.00
4449;BME280;2237;51.870;6.160;2023-03-14T03:55:03;98738.44;;;11.59;100.00
4449;BME280;2237;51.870;6.160;2023-03-14T03:57:29;98745.41;;;11.58;100.00
4449;BME280;2237;51.870;6.160;2023-03-14T03:59:55;98739.63;;;11.53;100.00
4449;BME280;2237;51.870;6.160;2023-03-14T04:02:22;98742.97;;;11.55;100.00
4449;BME280;2237;51.870;6.160;2023-03-14T04:04:48;98737.13;;;11.52;100.00
4449;BME280;2237;51.870;6.160;2023-03-14T04:07:15;98730.72;;;11.57;100.00
4449;BME280;2237;51.870;6.160;2023-03-14T04:09:41;98726.59;;;11.53;100.00
4449;BME280;2237;51.870;6.160;2023-03-14T04:12:07;98732.56;;;11.55;100.00
4449;BME280;2237;51.870;6.160;2023-03-14T04:14:34;98732.72;;;11.52;100.00
4449;BME280;2237;51.870;6.160;2023-03-14T04:17:00;98726.59;;;11.53;100.00
4449;BME280;2237;51.870;6.160;2023-03-14T04:19:26;98719.63;;;11.54;100.00
4449;BME280;2237;51.870;6.160;2023-03-14T04:21:53;98725.31;;;11.46;100.00
4449;BME280;2237;51.870;6.160;2023-03-14T04:24:19;98717.88;;;11.54;100.00
4449;BME280;2237;51.870;6.160;2023-03-14T04:26:46;98711.13;;;11.50;100.00
4449;BME280;2237;51.870;6.160;2023-03-14T04:29:12;98723.50;;;11.47;100.00
4449;BME280;2237;51.870;6.160;2023-03-14T04:31:38;98732.00;;;11.50;100.00
4449;BME280;2237;51.870;6.160;2023-03-14T04:34:05;98728.09;;;11.43;100.00
4449;BME280;2237;51.870;6.160;2023-03-14T04:36:31;98724.28;;;11.49;100.00
4449;BME280;2237;51.870;6.160;2023-03-14T04:38:58;98721.25;;;11.41;100.00
4449;BME280;2237;51.870;6.160;2023-03-14T04:41:24;98719.31;;;11.44;100.00
4449;BME280;2237;51.870;6.160;2023-03-14T04:43:51;98705.28;;;11.47;100.00
4449;BME280;2237;51.870;6.160;2023-03-14T04:46:17;98709.19;;;11.54;100.00
4449;BME280;2237;51.870;6.160;2023-03-14T04:48:43;98713.38;;;11.42;100.00
4449;BME280;2237;51.870;6.160;2023-03-14T04:51:10;98700.91;;;11.47;100.00
4449;BME280;2237;51.870;6.160;2023-03-14T04:53:36;98701.06;;;11.44;100.00
4449;BME280;2237;51.870;6.160;2023-03-14T04:56:03;98710.09;;;11.39;100.00
4449;BME280;2237;51.870;6.160;2023-03-14T04:58:29;98704.59;;;11.29;100.00
4449;BME280;2237;51.870;6.160;2023-03-14T05:01:01;98710.63;;;11.29;100.00
4449;BME280;2237;51.870;6.160;2023-03-14T05:03:28;98700.88;;;11.33;100.00
4449;BME280;2237;51.870;6.160;2023-03-14T05:05:55;98701.91;;;11.30;100.00
4449;BME280;2237;51.870;6.160;2023-03-14T05:08:23;98706.56;;;11.40;100.00
4449;BME280;2237;51.870;6.160;2023-03-14T05:10:56;98705.63;;;11.41;100.00
4449;BME280;2237;51.870;6.160;2023-03-14T05:13:25;98709.38;;;11.37;100.00
4449;BME280;2237;51.870;6.160;2023-03-14T05:15:51;98712.63;;;11.40;100.00
4449;BME280;2237;51.870;6.160;2023-03-14T05:18:18;98709.53;;;11.33;100.00
4449;BME280;2237;51.870;6.160;2023-03-14T05:20:45;98707.41;;;11.26;100.00
4449;BME280;2237;51.870;6.160;2023-03-14T05:23:11;98718.56;;;11.28;100.00
4449;BME280;2237;51.870;6.160;2023-03-14T05:25:38;98713.34;;;11.28;100.00
4449;BME280;2237;51.870;6.160;2023-03-14T05:28:04;98712.16;;;11.33;100.00
4449;BME280;2237;51.870;6.160;2023-03-14T05:30:30;98711.66;;;11.27;100.00
4449;BME280;2237;51.870;6.160;2023-03-14T05:32:58;98712.41;;;11.29;100.00
4449;BME280;2237;51.870;6.160;2023-03-14T05:35:26;98710.00;;;11.26;100.00
4449;BME280;2237;51.870;6.160;2023-03-14T05:37:53;98702.63;;;11.18;100.00
4449;BME280;2237;51.870;6.160;2023-03-14T05:40:19;98704.31;;;11.19;100.00
4449;BME280;2237;51.870;6.160;2023-03-14T05:42:45;98704.38;;;11.18;100.00
4449;BME280;2237;51.870;6.160;2023-03-14T05:45:12;98704.97;;;11.23;100.00
4449;BME280;2237;51.870;6.160;2023-03-14T05:47:38;98696.22;;;11.24;100.00
4449;BME280;2237;51.870;6.160;2023-03-14T05:50:05;98693.53;;;11.25;100.00
4449;BME280;2237;51.870;6.160;2023-03-14T05:52:31;98697.97;;;11.23;100.00
4449;BME280;2237;51.870;6.160;2023-03-14T05:54:58;98703.28;;;11.22;100.00
4449;BME280;2237;51.870;6.160;2023-03-14T05:57:24;98700.00;;;11.18;100.00
4449;BME280;2237;51.870;6.160;2023-03-14T05:59:50;98698.91;;;11.08;100.00
4449;BME280;2237;51.870;6.160;2023-03-14T06:02:17;98687.19;;;10.86;100.00
4449;BME280;2237;51.870;6.160;2023-03-14T06:04:43;98713.03;;;10.89;100.00
4449;BME280;2237;51.870;6.160;2023-03-14T06:07:09;98705.56;;;10.83;100.00
4449;BME280;2237;51.870;6.160;2023-03-14T06:09:36;98710.78;;;10.83;100.00
4449;BME280;2237;51.870;6.160;2023-03-14T06:12:03;98710.97;;;10.80;100.00
4449;BME280;2237;51.870;6.160;2023-03-14T06:14:29;98705.78;;;10.80;100.00
4449;BME280;2237;51.870;6.160;2023-03-14T06:16:56;98698.88;;;10.78;100.00
4449;BME280;2237;51.870;6.160;2023-03-14T06:19:22;98694.97;;;10.86;100.00
4449;BME280;2237;51.870;6.160;2023-03-14T06:21:49;98685.06;;;10.92;100.00
4449;BME280;2237;51.870;6.160;2023-03-14T06:24:16;98693.06;;;10.89;100.00
4449;BME280;2237;51.870;6.160;2023-03-14T06:26:42;98694.47;;;10.95;100.00
4449;BME280;2237;51.870;6.160;2023-03-14T06:29:09;98694.88;;;11.03;100.00
4449;BME280;2237;51.870;6.160;2023-03-14T06:31:35;98696.28;;;11.08;100.00
4449;BME280;2237;51.870;6.160;2023-03-14T06:34:02;98696.31;;;11.22;100.00
4449;BME280;2237;51.870;6.160;2023-03-14T06:36:28;98705.06;;;11.21;100.00
4449;BME280;2237;51.870;6.160;2023-03-14T06:38:55;98702.94;;;11.28;100.00
4449;BME280;2237;51.870;6.160;2023-03-14T06:41:21;98705.97;;;11.20;100.00
4449;BME280;2237;51.870;6.160;2023-03-14T06:43:49;98710.19;;;11.23;100.00
4449;BME280;2237;51.870;6.160;2023-03-14T06:46:16;98701.22;;;11.13;100.00
4449;BME280;2237;51.870;6.160;2023-03-14T06:48:42;98713.78;;;11.20;100.00
4449;BME280;2237;51.870;6.160;2023-03-14T06:51:09;98712.41;;;11.29;100.00
4449;BME280;2237;51.870;6.160;2023-03-14T06:53:35;98707.44;;;11.40;100.00
4449;BME280;2237;51.870;6.160;2023-03-14T06:56:01;98716.16;;;11.39;100.00
4449;BME280;2237;51.870;6.160;2023-03-14T06:58:28;98718.66;;;11.41;100.00
4449;BME280;2237;51.870;6.160;2023-03-14T07:00:54;98718.75;;;11.39;100.00
4449;BME280;2237;51.870;6.160;2023-03-14T07:03:21;98715.31;;;11.39;100.00
4449;BME280;2237;51.870;6.160;2023-03-14T07:05:47;98722.53;;;11.49;100.00
4449;BME280;2237;51.870;6.160;2023-03-14T07:08:13;98719.91;;;11.49;100.00
4449;BME280;2237;51.870;6.160;2023-03-14T07:10:40;98725.88;;;11.51;100.00
4449;BME280;2237;51.870;6.160;2023-03-14T07:13:06;98727.16;;;11.44;100.00
4449;BME280;2237;51.870;6.160;2023-03-14T07:15:32;98725.56;;;11.42;100.00
4449;BME280;2237;51.870;6.160;2023-03-14T07:17:59;98735.97;;;11.42;100.00
4449;BME280;2237;51.870;6.160;2023-03-14T07:20:26;98737.75;;;11.41;100.00
4449;BME280;2237;51.870;6.160;2023-03-14T07:22:52;98736.47;;;11.48;100.00
4449;BME280;2237;51.870;6.160;2023-03-14T07:25:19;98736.66;;;11.59;100.00
4449;BME280;2237;51.870;6.160;2023-03-14T07:27:46;98734.88;;;11.46;100.00
4449;BME280;2237;51.870;6.160;2023-03-14T07:30:14;98743.38;;;11.49;100.00
4449;BME280;2237;51.870;6.160;2023-03-14T07:32:40;98741.69;;;11.48;100.00
4449;BME280;2237;51.870;6.160;2023-03-14T07:35:07;98740.19;;;11.58;100.00
4449;BME280;2237;51.870;6.160;2023-03-14T07:37:34;98751.03;;;11.66;100.00
4449;BME280;2237;51.870;6.160;2023-03-14T07:40:00;98754.56;;;11.65;100.00
4449;BME280;2237;51.870;6.160;2023-03-14T07:42:26;98757.13;;;11.81;100.00
4449;BME280;2237;51.870;6.160;2023-03-14T07:44:53;98759.91;;;11.92;100.00
4449;BME280;2237;51.870;6.160;2023-03-14T07:47:19;98760.59;;;11.96;100.00
4449;BME280;2237;51.870;6.160;2023-03-14T07:49:46;98756.00;;;11.85;100.00
4449;BME280;2237;51.870;6.160;2023-03-14T07:52:12;98765.91;;;11.64;100.00
4449;BME280;2237;51.870;6.160;2023-03-14T07:54:38;98772.28;;;11.45;100.00
4449;BME280;2237;51.870;6.160;2023-03-14T07:57:05;98838.38;;;10.98;100.00
4449;BME280;2237;51.870;6.160;2023-03-14T07:59:31;98829.69;;;10.51;100.00
4449;BME280;2237;51.870;6.160;2023-03-14T08:01:58;98834.22;;;10.32;100.00
4449;BME280;2237;51.870;6.160;2023-03-14T08:04:25;98856.66;;;10.50;100.00
4449;BME280;2237;51.870;6.160;2023-03-14T08:06:54;98852.66;;;10.10;100.00
4449;BME280;2237;51.870;6.160;2023-03-14T08:09:20;98860.81;;;9.87;100.00
4449;BME280;2237;51.870;6.160;2023-03-14T08:11:47;98870.13;;;9.91;100.00
4449;BME280;2237;51.870;6.160;2023-03-14T08:14:13;98882.22;;;9.92;100.00
4449;BME280;2237;51.870;6.160;2023-03-14T08:16:39;98887.13;;;9.98;100.00
4449;BME280;2237;51.870;6.160;2023-03-14T08:19:06;98903.72;;;9.95;100.00
4449;BME280;2237;51.870;6.160;2023-03-14T08:21:32;98901.06;;;10.14;100.00
4449;BME280;2237;51.870;6.160;2023-03-14T08:23:58;98909.44;;;10.19;100.00
4449;BME280;2237;51.870;6.160;2023-03-14T08:26:25;98921.44;;;10.21;100.00
4449;BME280;2237;51.870;6.160;2023-03-14T08:28:51;98936.84;;;10.09;100.00
4449;BME280;2237;51.870;6.160;2023-03-14T08:31:17;98935.84;;;10.11;100.00
4449;BME280;2237;51.870;6.160;2023-03-14T08:33:44;98936.22;;;10.04;100.00
4449;BME280;2237;51.870;6.160;2023-03-14T08:36:10;98943.41;;;10.16;100.00
4449;BME280;2237;51.870;6.160;2023-03-14T08:38:37;98957.47;;;10.46;100.00
4449;BME280;2237;51.870;6.160;2023-03-14T08:41:03;98961.84;;;10.78;100.00
4449;BME280;2237;51.870;6.160;2023-03-14T08:43:30;98965.78;;;10.86;100.00
4449;BME280;2237;51.870;6.160;2023-03-14T08:45:57;98969.41;;;10.83;100.00
4449;BME280;2237;51.870;6.160;2023-03-14T08:48:24;98974.50;;;11.02;100.00
4449;BME280;2237;51.870;6.160;2023-03-14T08:50:50;98984.69;;;11.22;100.00
4449;BME280;2237;51.870;6.160;2023-03-14T08:53:17;98992.16;;;11.44;100.00
4449;BME280;2237;51.870;6.160;2023-03-14T08:55:44;99002.94;;;11.38;100.00
4449;BME280;2237;51.870;6.160;2023-03-14T08:58:10;99011.50;;;11.40;100.00
4449;BME280;2237;51.870;6.160;2023-03-14T09:00:37;99020.16;;;11.56;100.00
4449;BME280;2237;51.870;6.160;2023-03-14T09:03:03;99027.22;;;11.38;100.00
4449;BME280;2237;51.870;6.160;2023-03-14T09:05:33;99055.72;;;10.93;100.00
4449;BME280;2237;51.870;6.160;2023-03-14T09:07:59;99068.47;;;10.64;100.00
4449;BME280;2237;51.870;6.160;2023-03-14T09:10:26;99071.53;;;10.55;100.00
4449;BME280;2237;51.870;6.160;2023-03-14T09:12:52;99101.97;;;10.36;100.00
4449;BME280;2237;51.870;6.160;2023-03-14T09:15:18;99100.22;;;10.37;100.00
4449;BME280;2237;51.870;6.160;2023-03-14T09:17:45;99100.16;;;10.55;100.00
4449;BME280;2237;51.870;6.160;2023-03-14T09:20:11;99116.19;;;10.65;100.00
4449;BME280;2237;51.870;6.160;2023-03-14T09:22:38;99156.34;;;10.59;100.00
4449;BME280;2237;51.870;6.160;2023-03-14T09:25:05;99144.31;;;10.57;100.00
4449;BME280;2237;51.870;6.160;2023-03-14T09:27:32;99150.91;;;10.47;100.00
4449;BME280;2237;51.870;6.160;2023-03-14T09:29:58;99165.13;;;10.40;100.00
4449;BME280;2237;51.870;6.160;2023-03-14T09:32:24;99177.59;;;10.33;100.00
4449;BME280;2237;51.870;6.160;2023-03-14T09:34:51;99201.78;;;10.16;100.00
4449;BME280;2237;51.870;6.160;2023-03-14T09:37:17;99248.59;;;9.98;100.00
4449;BME280;2237;51.870;6.160;2023-03-14T09:39:46;99234.28;;;9.88;100.00
4449;BME280;2237;51.870;6.160;2023-03-14T09:42:14;99239.84;;;9.99;100.00
4449;BME280;2237;51.870;6.160;2023-03-14T09:44:53;99249.22;;;10.21;100.00
4449;BME280;2237;51.870;6.160;2023-03-14T09:47:21;99259.97;;;10.51;100.00
4449;BME280;2237;51.870;6.160;2023-03-14T09:49:49;99279.53;;;10.60;100.00
4449;BME280;2237;51.870;6.160;2023-03-14T09:52:32;99286.44;;;10.61;100.00
4449;BME280;2237;51.870;6.160;2023-03-14T09:55:13;99294.47;;;10.92;100.00
4449;BME280;2237;51.870;6.160;2023-03-14T09:57:41;99300.41;;;11.30;100.00
4449;BME280;2237;51.870;6.160;2023-03-14T10:00:21;99319.78;;;11.07;100.00
4449;BME280;2237;51.870;6.160;2023-03-14T10:02:56;99330.09;;;10.92;100.00
4449;BME280;2237;51.870;6.160;2023-03-14T10:05:25;99330.09;;;10.92;100.00
4449;BME280;2237;51.870;6.160;2023-03-14T10:07:51;99348.84;;;10.81;100.00
4449;BME280;2237;51.870;6.160;2023-03-14T10:10:21;99370.53;;;10.82;100.00
4449;BME280;2237;51.870;6.160;2023-03-14T10:12:55;99377.81;;;11.11;100.00
4449;BME280;2237;51.870;6.160;2023-03-14T10:15:29;99371.19;;;11.40;100.00
4449;BME280;2237;51.870;6.160;2023-03-14T10:17:59;99377.31;;;11.39;100.00
4449;BME280;2237;51.870;6.160;2023-03-14T10:20:33;99398.38;;;11.17;100.00
4449;BME280;2237;51.870;6.160;2023-03-14T10:25:45;99419.44;;;10.94;100.00
4449;BME280;2237;51.870;6.160;2023-03-14T10:28:34;99435.97;;;10.93;100.00
4449;BME280;2237;51.870;6.160;2023-03-14T10:31:03;99455.75;;;10.97;100.00
4449;BME280;2237;51.870;6.160;2023-03-14T10:33:33;99463.47;;;10.61;100.00
4449;BME280;2237;51.870;6.160;2023-03-14T10:38:34;99482.03;;;10.53;100.00
4449;BME280;2237;51.870;6.160;2023-03-14T10:41:01;99512.38;;;10.12;100.00
4449;BME280;2237;51.870;6.160;2023-03-14T10:43:33;99520.31;;;9.88;100.00
4449;BME280;2237;51.870;6.160;2023-03-14T10:46:06;99530.41;;;9.74;100.00
4449;BME280;2237;51.870;6.160;2023-03-14T10:48:36;99533.28;;;9.89;100.00
4449;BME280;2237;51.870;6.160;2023-03-14T10:51:09;99542.44;;;10.19;100.00
4449;BME280;2237;51.870;6.160;2023-03-14T10:53:55;99550.59;;;10.32;100.00
4449;BME280;2237;51.870;6.160;2023-03-14T10:56:24;99556.56;;;10.34;100.00
4449;BME280;2237;51.870;6.160;2023-03-14T10:58:53;99556.81;;;10.28;100.00
4449;BME280;2237;51.870;6.160;2023-03-14T11:01:36;99577.72;;;10.27;100.00
4449;BME280;2237;51.870;6.160;2023-03-14T11:07:03;99588.19;;;10.25;100.00
4449;BME280;2237;51.870;6.160;2023-03-14T11:09:56;99609.56;;;10.10;100.00
4449;BME280;2237;51.870;6.160;2023-03-14T11:21:08;99659.97;;;9.15;100.00
4449;BME280;2237;51.870;6.160;2023-03-14T11:23:50;99671.66;;;9.26;100.00
4449;BME280;2237;51.870;6.160;2023-03-14T11:26:33;99682.91;;;9.51;100.00
4449;BME280;2237;51.870;6.160;2023-03-14T11:29:20;99694.88;;;9.79;100.00
4449;BME280;2237;51.870;6.160;2023-03-14T11:31:48;99701.34;;;10.15;100.00
4449;BME280;2237;51.870;6.160;2023-03-14T11:35:01;99697.59;;;10.44;100.00
4449;BME280;2237;51.870;6.160;2023-03-14T11:37:31;99708.06;;;10.64;100.00
4449;BME280;2237;51.870;6.160;2023-03-14T11:42:32;99742.59;;;10.89;100.00
4449;BME280;2237;51.870;6.160;2023-03-14T11:45:00;99735.66;;;11.10;100.00
4449;BME280;2237;51.870;6.160;2023-03-14T11:47:33;99742.72;;;10.86;100.00
4449;BME280;2237;51.870;6.160;2023-03-14T11:50:15;99750.38;;;10.91;100.00
4449;BME280;2237;51.870;6.160;2023-03-14T11:52:56;99771.44;;;10.85;100.00
4449;BME280;2237;51.870;6.160;2023-03-14T11:55:27;99787.97;;;10.84;100.00
4449;BME280;2237;51.870;6.160;2023-03-14T11:58:01;99774.66;;;10.91;100.00
4449;BME280;2237;51.870;6.160;2023-03-14T12:00:30;99754.97;;;11.66;98.07
4449;BME280;2237;51.870;6.160;2023-03-14T12:03:04;99760.19;;;12.05;96.93
4449;BME280;2237;51.870;6.160;2023-03-14T12:05:55;99779.19;;;11.88;90.68
4449;BME280;2237;51.870;6.160;2023-03-14T12:11:12;99797.97;;;11.56;90.57
4449;BME280;2237;51.870;6.160;2023-03-14T12:13:40;99805.78;;;11.36;91.40
4449;BME280;2237;51.870;6.160;2023-03-14T12:16:24;99821.28;;;11.19;91.93
4449;BME280;2237;51.870;6.160;2023-03-14T12:18:53;99822.44;;;11.32;93.86
4449;BME280;2237;51.870;6.160;2023-03-14T12:21:20;99831.00;;;11.35;92.11
4449;BME280;2237;51.870;6.160;2023-03-14T12:23:57;99855.06;;;11.42;87.42
4449;BME280;2237;51.870;6.160;2023-03-14T12:26:25;99849.38;;;11.74;73.00
4449;BME280;2237;51.870;6.160;2023-03-14T12:29:17;99875.16;;;11.40;68.18
4449;BME280;2237;51.870;6.160;2023-03-14T12:31:46;99877.72;;;11.20;64.99
4449;BME280;2237;51.870;6.160;2023-03-14T12:50:43;99909.06;;;12.02;53.91
4449;BME280;2237;51.870;6.160;2023-03-14T12:56:24;99913.28;;;12.05;50.59
4449;BME280;2237;51.870;6.160;2023-03-14T13:01:55;99925.81;;;12.17;48.75
4449;BME280;2237;51.870;6.160;2023-03-14T13:04:34;99940.31;;;12.04;43.57
4449;BME280;2237;51.870;6.160;2023-03-14T13:07:11;99946.31;;;11.85;46.15
4449;BME280;2237;51.870;6.160;2023-03-14T13:09:54;99946.72;;;11.53;44.56
4449;BME280;2237;51.870;6.160;2023-03-14T13:12:30;99960.53;;;11.55;44.85
4449;BME280;2237;51.870;6.160;2023-03-14T13:15:01;99960.84;;;11.48;44.91
4449;BME280;2237;51.870;6.160;2023-03-14T13:17:33;99971.78;;;11.57;44.17
4449;BME280;2237;51.870;6.160;2023-03-14T13:20:30;99977.59;;;12.07;44.23
4449;BME280;2237;51.870;6.160;2023-03-14T13:22:58;99982.13;;;12.42;42.16
4449;BME280;2237;51.870;6.160;2023-03-14T13:25:29;99983.91;;;12.42;42.55
4449;BME280;2237;51.870;6.160;2023-03-14T13:27:56;100002.41;;;12.76;42.47
4449;BME280;2237;51.870;6.160;2023-03-14T13:30:26;99998.31;;;12.89;41.63
4449;BME280;2237;51.870;6.160;2023-03-14T13:32:54;100002.38;;;13.52;39.40
4449;BME280;2237;51.870;6.160;2023-03-14T13:35:26;100018.50;;;13.62;39.72
4449;BME280;2237;51.870;6.160;2023-03-14T13:37:59;100012.72;;;14.26;38.57
4449;BME280;2237;51.870;6.160;2023-03-14T13:40:37;100037.13;;;16.65;32.59
4449;BME280;2237;51.870;6.160;2023-03-14T13:43:14;100007.41;;;20.94;27.39
4449;BME280;2237;51.870;6.160;2023-03-14T13:45:44;100021.69;;;24.43;23.18
4449;BME280;2237;51.870;6.160;2023-03-14T13:48:12;100037.25;;;26.48;19.26
4449;BME280;2237;51.870;6.160;2023-03-14T13:50:46;100043.31;;;28.11;17.38
4449;BME280;2237;51.870;6.160;2023-03-14T13:53:15;100075.75;;;27.58;17.01
4449;BME280;2237;51.870;6.160;2023-03-14T13:55:41;100079.25;;;29.45;14.97
4449;BME280;2237;51.870;6.160;2023-03-14T13:58:19;100082.03;;;29.99;14.92
4449;BME280;2237;51.870;6.160;2023-03-14T14:03:42;100081.84;;;31.43;14.20
4449;BME280;2237;51.870;6.160;2023-03-14T14:09:02;100104.50;;;33.20;12.52
4449;BME280;2237;51.870;6.160;2023-03-14T14:14:29;100124.44;;;27.61;16.39
4449;BME280;2237;51.870;6.160;2023-03-14T14:16:57;100129.41;;;30.99;14.17
4449;BME280;2237;51.870;6.160;2023-03-14T14:19:27;100135.53;;;27.23;16.20